sensor_id;sensor_type;location;lat;lon;timestamp;P1;durP1;ratioP1;P2;durP2;ratioP2
9256;SDS011;4665;51.368;6.782;2024-02-15T00:04:07;5.70;;;3.93;;
9256;SDS011;4665;51.368;6.782;2024-02-15T00:09:30;3.97;;;3.50;;
9256;SDS011;4665;51.368;6.782;2024-02-15T00:12:02;6.63;;;4.00;;
9256;SDS011;4665;51.368;6.782;2024-02-15T00:14:27;8.43;;;4.33;;
9256;SDS011;4665;51.368;6.782;2024-02-15T00:19:38;9.00;;;4.60;;
9256;SDS011;4665;51.368;6.782;2024-02-15T00:25:16;6.00;;;4.23;;
9256;SDS011;4665;51.368;6.782;2024-02-15T00:27:41;7.97;;;4.70;;
9256;SDS011;4665;51.368;6.782;2024-02-15T00:32:56;4.93;;;4.43;;
9256;SDS011;4665;51.368;6.782;2024-02-15T00:38:01;7.20;;;4.60;;
9256;SDS011;4665;51.368;6.782;2024-02-15T00:42:56;6.47;;;5.27;;
9256;SDS011;4665;51.368;6.782;2024-02-15T00:48:09;7.03;;;4.20;;
9256;SDS011;4665;51.368;6.782;2024-02-15T00:53:35;5.60;;;4.40;;
9256;SDS011;4665;51.368;6.782;2024-02-15T00:56:17;7.50;;;4.23;;
9256;SDS011;4665;51.368;6.782;2024-02-15T00:58:42;5.70;;;4.50;;
9256;SDS011;4665;51.368;6.782;2024-02-15T01:01:20;6.80;;;5.03;;
9256;SDS011;4665;51.368;6.782;2024-02-15T01:03:46;9.53;;;5.37;;
9256;SDS011;4665;51.368;6.782;2024-02-15T01:09:08;7.57;;;4.80;;
9256;SDS011;4665;51.368;6.782;2024-02-15T01:11:34;4.73;;;4.33;;
9256;SDS011;4665;51.368;6.782;2024-02-15T01:14:01;8.30;;;4.57;;
9256;SDS011;4665;51.368;6.782;2024-02-15T01:16:34;4.97;;;4.10;;
9256;SDS011;4665;51.368;6.782;2024-02-15T01:19:01;4.77;;;3.90;;
9256;SDS011;4665;51.368;6.782;2024-02-15T01:21:38;4.47;;;4.07;;
9256;SDS011;4665;51.368;6.782;2024-02-15T01:24:05;6.57;;;4.70;;
9256;SDS011;4665;51.368;6.782;2024-02-15T01:29:53;6.57;;;4.10;;
9256;SDS011;4665;51.368;6.782;2024-02-15T01:32:18;4.00;;;3.63;;
9256;SDS011;4665;51.368;6.782;2024-02-15T01:34:46;3.93;;;3.63;;
9256;SDS011;4665;51.368;6.782;2024-02-15T01:37:12;6.93;;;4.30;;
9256;SDS011;4665;51.368;6.782;2024-02-15T01:39:37;4.20;;;3.63;;
9256;SDS011;4665;51.368;6.782;2024-02-15T01:42:03;3.73;;;3.43;;
9256;SDS011;4665;51.368;6.782;2024-02-15T01:47:17;4.27;;;3.73;;
9256;SDS011;4665;51.368;6.782;2024-02-15T01:49:49;5.83;;;3.70;;
9256;SDS011;4665;51.368;6.782;2024-02-15T01:52:15;4.57;;;4.10;;
9256;SDS011;4665;51.368;6.782;2024-02-15T02:00:48;3.70;;;3.40;;
9256;SDS011;4665;51.368;6.782;2024-02-15T02:03:16;3.47;;;3.10;;
9256;SDS011;4665;51.368;6.782;2024-02-15T02:05:50;5.93;;;3.73;;
9256;SDS011;4665;51.368;6.782;2024-02-15T02:08:15;4.27;;;3.27;;
9256;SDS011;4665;51.368;6.782;2024-02-15T02:10:56;5.23;;;3.70;;
9256;SDS011;4665;51.368;6.782;2024-02-15T02:13:22;4.13;;;3.57;;
9256;SDS011;4665;51.368;6.782;2024-02-15T02:16:23;5.53;;;3.57;;
9256;SDS011;4665;51.368;6.782;2024-02-15T02:18:49;4.53;;;3.67;;
9256;SDS011;4665;51.368;6.782;2024-02-15T02:21:15;9.73;;;3.43;;
9256;SDS011;4665;51.368;6.782;2024-02-15T02:30:12;5.93;;;3.30;;
9256;SDS011;4665;51.368;6.782;2024-02-15T02:32:40;4.57;;;3.40;;
9256;SDS011;4665;51.368;6.782;2024-02-15T02:35:07;4.77;;;3.67;;
9256;SDS011;4665;51.368;6.782;2024-02-15T02:37:32;7.10;;;3.50;;
9256;SDS011;4665;51.368;6.782;2024-02-15T02:42:56;6.63;;;3.43;;
9256;SDS011;4665;51.368;6.782;2024-02-15T02:45:26;4.10;;;3.20;;
9256;SDS011;4665;51.368;6.782;2024-02-15T02:47:51;5.43;;;3.40;;
9256;SDS011;4665;51.368;6.782;2024-02-15T02:53:01;5.07;;;3.30;;
9256;SDS011;4665;51.368;6.782;2024-02-15T02:55:37;3.97;;;3.13;;
9256;SDS011;4665;51.368;6.782;2024-02-15T02:58:03;4.97;;;3.43;;
9256;SDS011;4665;51.368;6.782;2024-02-15T03:03:07;5.80;;;3.03;;
9256;SDS011;4665;51.368;6.782;2024-02-15T03:05:32;4.17;;;3.13;;
9256;SDS011;4665;51.368;6.782;2024-02-15T03:07:59;5.17;;;3.13;;
9256;SDS011;4665;51.368;6.782;2024-02-15T03:10:24;4.83;;;3.43;;
9256;SDS011;4665;51.368;6.782;2024-02-15T03:18:22;4.47;;;3.03;;
9256;SDS011;4665;51.368;6.782;2024-02-15T03:20:56;3.80;;;2.90;;
9256;SDS011;4665;51.368;6.782;2024-02-15T03:23:21;6.17;;;3.30;;
9256;SDS011;4665;51.368;6.782;2024-02-15T03:28:39;7.47;;;3.33;;
9256;SDS011;4665;51.368;6.782;2024-02-15T03:33:47;3.00;;;2.50;;
9256;SDS011;4665;51.368;6.782;2024-02-15T03:36:16;4.03;;;3.23;;
9256;SDS011;4665;51.368;6.782;2024-02-15T03:38:45;4.20;;;3.07;;
9256;SDS011;4665;51.368;6.782;2024-02-15T03:41:13;7.70;;;3.47;;
9256;SDS011;4665;51.368;6.782;2024-02-15T03:43:39;5.17;;;3.40;;
9256;SDS011;4665;51.368;6.782;2024-02-15T03:46:05;3.30;;;2.90;;
9256;SDS011;4665;51.368;6.782;2024-02-15T03:48:32;5.70;;;2.80;;
9256;SDS011;4665;51.368;6.782;2024-02-15T03:53:48;7.07;;;3.40;;
9256;SDS011;4665;51.368;6.782;2024-02-15T03:56:13;5.23;;;2.90;;
9256;SDS011;4665;51.368;6.782;2024-02-15T03:58:42;4.37;;;3.00;;
9256;SDS011;4665;51.368;6.782;2024-02-15T04:07:13;5.03;;;3.27;;
9256;SDS011;4665;51.368;6.782;2024-02-15T04:12:33;5.47;;;3.37;;
9256;SDS011;4665;51.368;6.782;2024-02-15T04:14:58;7.63;;;3.30;;
9256;SDS011;4665;51.368;6.782;2024-02-15T04:17:36;4.17;;;2.80;;
9256;SDS011;4665;51.368;6.782;2024-02-15T04:20:03;2.70;;;2.50;;
9256;SDS011;4665;51.368;6.782;2024-02-15T04:22:37;5.90;;;3.13;;
9256;SDS011;4665;51.368;6.782;2024-02-15T04:25:04;4.73;;;3.43;;
9256;SDS011;4665;51.368;6.782;2024-02-15T04:33:36;3.73;;;3.23;;
9256;SDS011;4665;51.368;6.782;2024-02-15T04:36:01;6.00;;;3.13;;
9256;SDS011;4665;51.368;6.782;2024-02-15T04:38:33;4.77;;;3.00;;
9256;SDS011;4665;51.368;6.782;2024-02-15T04:41:00;3.93;;;2.77;;
9256;SDS011;4665;51.368;6.782;2024-02-15T04:46:27;2.87;;;2.57;;
9256;SDS011;4665;51.368;6.782;2024-02-15T04:48:53;3.37;;;3.07;;
9256;SDS011;4665;51.368;6.782;2024-02-15T04:51:20;3.03;;;2.80;;
9256;SDS011;4665;51.368;6.782;2024-02-15T04:56:33;3.00;;;2.80;;
9256;SDS011;4665;51.368;6.782;2024-02-15T04:59:03;3.70;;;2.63;;
9256;SDS011;4665;51.368;6.782;2024-02-15T05:04:10;3.40;;;2.90;;
9256;SDS011;4665;51.368;6.782;2024-02-15T05:06:36;3.33;;;3.00;;
9256;SDS011;4665;51.368;6.782;2024-02-15T05:11:56;2.87;;;2.67;;
9256;SDS011;4665;51.368;6.782;2024-02-15T05:14:23;3.67;;;2.90;;
9256;SDS011;4665;51.368;6.782;2024-02-15T05:16:49;3.00;;;2.70;;
9256;SDS011;4665;51.368;6.782;2024-02-15T05:22:20;3.00;;;2.70;;
9256;SDS011;4665;51.368;6.782;2024-02-15T05:25:04;2.93;;;2.40;;
9256;SDS011;4665;51.368;6.782;2024-02-15T05:27:30;2.30;;;2.20;;
9256;SDS011;4665;51.368;6.782;2024-02-15T05:30:07;3.83;;;2.80;;
9256;SDS011;4665;51.368;6.782;2024-02-15T05:32:34;4.40;;;3.10;;
9256;SDS011;4665;51.368;6.782;2024-02-15T05:37:43;2.87;;;2.47;;
9256;SDS011;4665;51.368;6.782;2024-02-15T05:40:25;3.00;;;2.80;;
9256;SDS011;4665;51.368;6.782;2024-02-15T05:42:54;3.50;;;2.60;;
9256;SDS011;4665;51.368;6.782;2024-02-15T05:48:10;3.43;;;2.63;;
9256;SDS011;4665;51.368;6.782;2024-02-15T05:50:39;4.27;;;2.63;;
9256;SDS011;4665;51.368;6.782;2024-02-15T05:53:04;3.40;;;2.60;;
9256;SDS011;4665;51.368;6.782;2024-02-15T05:58:24;3.83;;;2.67;;
9256;SDS011;4665;51.368;6.782;2024-02-15T06:01:00;3.13;;;2.57;;
9256;SDS011;4665;51.368;6.782;2024-02-15T06:03:30;3.83;;;2.30;;
9256;SDS011;4665;51.368;6.782;2024-02-15T06:08:45;2.40;;;2.13;;
9256;SDS011;4665;51.368;6.782;2024-02-15T06:11:23;2.70;;;2.50;;
9256;SDS011;4665;51.368;6.782;2024-02-15T06:13:49;4.00;;;3.07;;
9256;SDS011;4665;51.368;6.782;2024-02-15T06:18:59;2.97;;;2.50;;
9256;SDS011;4665;51.368;6.782;2024-02-15T06:21:25;3.83;;;3.00;;
9256;SDS011;4665;51.368;6.782;2024-02-15T06:23:51;4.00;;;2.90;;
9256;SDS011;4665;51.368;6.782;2024-02-15T06:35:25;3.23;;;2.67;;
9256;SDS011;4665;51.368;6.782;2024-02-15T06:38:10;2.67;;;2.47;;
9256;SDS011;4665;51.368;6.782;2024-02-15T06:40:53;5.73;;;2.30;;
9256;SDS011;4665;51.368;6.782;2024-02-15T06:43:21;3.37;;;2.40;;
9256;SDS011;4665;51.368;6.782;2024-02-15T06:45:46;2.70;;;2.10;;
9256;SDS011;4665;51.368;6.782;2024-02-15T06:48:20;4.77;;;2.70;;
9256;SDS011;4665;51.368;6.782;2024-02-15T06:50:48;2.83;;;2.10;;
9256;SDS011;4665;51.368;6.782;2024-02-15T06:53:27;2.67;;;2.40;;
9256;SDS011;4665;51.368;6.782;2024-02-15T06:55:52;2.53;;;2.33;;
9256;SDS011;4665;51.368;6.782;2024-02-15T06:58:18;5.53;;;2.70;;
9256;SDS011;4665;51.368;6.782;2024-02-15T07:09:05;2.83;;;2.60;;
9256;SDS011;4665;51.368;6.782;2024-02-15T07:11:34;3.20;;;2.40;;
9256;SDS011;4665;51.368;6.782;2024-02-15T07:14:06;3.13;;;2.47;;
9256;SDS011;4665;51.368;6.782;2024-02-15T07:16:32;2.47;;;2.27;;
9256;SDS011;4665;51.368;6.782;2024-02-15T07:19:11;2.60;;;2.40;;
9256;SDS011;4665;51.368;6.782;2024-02-15T07:21:36;2.60;;;2.40;;
9256;SDS011;4665;51.368;6.782;2024-02-15T07:27:07;4.07;;;2.73;;
9256;SDS011;4665;51.368;6.782;2024-02-15T07:29:33;3.70;;;2.37;;
9256;SDS011;4665;51.368;6.782;2024-02-15T07:35:01;4.90;;;3.00;;
9256;SDS011;4665;51.368;6.782;2024-02-15T07:37:34;3.97;;;2.73;;
9256;SDS011;4665;51.368;6.782;2024-02-15T07:40:00;4.20;;;3.00;;
9256;SDS011;4665;51.368;6.782;2024-02-15T07:45:44;3.13;;;2.83;;
9256;SDS011;4665;51.368;6.782;2024-02-15T07:48:09;4.33;;;2.80;;
9256;SDS011;4665;51.368;6.782;2024-02-15T07:50:35;3.20;;;2.63;;
9256;SDS011;4665;51.368;6.782;2024-02-15T07:53:19;2.83;;;2.50;;
9256;SDS011;4665;51.368;6.782;2024-02-15T07:55:44;3.30;;;2.40;;
9256;SDS011;4665;51.368;6.782;2024-02-15T07:58:13;3.00;;;2.77;;
9256;SDS011;4665;51.368;6.782;2024-02-15T08:00:38;3.83;;;2.50;;
9256;SDS011;4665;51.368;6.782;2024-02-15T08:03:22;3.63;;;2.93;;
9256;SDS011;4665;51.368;6.782;2024-02-15T08:05:48;3.90;;;2.30;;
9256;SDS011;4665;51.368;6.782;2024-02-15T08:08:13;4.80;;;2.77;;
9256;SDS011;4665;51.368;6.782;2024-02-15T08:10:41;5.00;;;2.70;;
9256;SDS011;4665;51.368;6.782;2024-02-15T08:13:07;3.97;;;2.83;;
9256;SDS011;4665;51.368;6.782;2024-02-15T08:15:48;4.97;;;3.20;;
9256;SDS011;4665;51.368;6.782;2024-02-15T08:18:17;3.20;;;2.63;;
9256;SDS011;4665;51.368;6.782;2024-02-15T08:32:54;5.03;;;2.83;;
9256;SDS011;4665;51.368;6.782;2024-02-15T08:35:20;3.17;;;2.37;;
9256;SDS011;4665;51.368;6.782;2024-02-15T08:40:31;5.30;;;2.57;;
9256;SDS011;4665;51.368;6.782;2024-02-15T08:45:49;4.40;;;2.50;;
9256;SDS011;4665;51.368;6.782;2024-02-15T08:48:24;3.67;;;2.27;;
9256;SDS011;4665;51.368;6.782;2024-02-15T08:50:49;3.97;;;2.03;;
9256;SDS011;4665;51.368;6.782;2024-02-15T08:56:04;2.47;;;2.27;;
9256;SDS011;4665;51.368;6.782;2024-02-15T08:58:29;3.80;;;2.77;;
9256;SDS011;4665;51.368;6.782;2024-02-15T09:01:00;5.33;;;2.40;;
9256;SDS011;4665;51.368;6.782;2024-02-15T09:03:27;4.43;;;2.70;;
9256;SDS011;4665;51.368;6.782;2024-02-15T09:06:06;2.50;;;2.20;;
9256;SDS011;4665;51.368;6.782;2024-02-15T09:08:32;2.73;;;2.23;;
9256;SDS011;4665;51.368;6.782;2024-02-15T09:10:58;3.43;;;2.23;;
9256;SDS011;4665;51.368;6.782;2024-02-15T09:13:23;2.73;;;2.53;;
9256;SDS011;4665;51.368;6.782;2024-02-15T09:15:49;3.00;;;2.70;;
9256;SDS011;4665;51.368;6.782;2024-02-15T09:18:15;6.77;;;3.00;;
9256;SDS011;4665;51.368;6.782;2024-02-15T09:23:45;5.00;;;2.43;;
9256;SDS011;4665;51.368;6.782;2024-02-15T09:26:12;4.37;;;2.63;;
9256;SDS011;4665;51.368;6.782;2024-02-15T09:28:39;2.47;;;2.27;;
9256;SDS011;4665;51.368;6.782;2024-02-15T09:31:06;5.27;;;2.30;;
9256;SDS011;4665;51.368;6.782;2024-02-15T09:33:31;5.73;;;2.13;;
9256;SDS011;4665;51.368;6.782;2024-02-15T09:38:33;4.77;;;2.40;;
9256;SDS011;4665;51.368;6.782;2024-02-15T09:41:01;5.77;;;2.93;;
9256;SDS011;4665;51.368;6.782;2024-02-15T09:43:27;2.93;;;2.40;;
9256;SDS011;4665;51.368;6.782;2024-02-15T09:51:50;4.57;;;2.10;;
9256;SDS011;4665;51.368;6.782;2024-02-15T09:54:16;2.53;;;1.93;;
9256;SDS011;4665;51.368;6.782;2024-02-15T09:56:49;3.77;;;2.57;;
9256;SDS011;4665;51.368;6.782;2024-02-15T09:59:30;2.57;;;2.30;;
9256;SDS011;4665;51.368;6.782;2024-02-15T10:01:58;2.90;;;2.40;;
9256;SDS011;4665;51.368;6.782;2024-02-15T10:04:27;3.30;;;2.40;;
9256;SDS011;4665;51.368;6.782;2024-02-15T10:06:53;2.40;;;1.90;;
9256;SDS011;4665;51.368;6.782;2024-02-15T10:09:25;3.73;;;2.53;;
9256;SDS011;4665;51.368;6.782;2024-02-15T10:12:01;3.73;;;2.53;;
9256;SDS011;4665;51.368;6.782;2024-02-15T10:14:27;2.70;;;2.03;;
9256;SDS011;4665;51.368;6.782;2024-02-15T10:16:53;4.03;;;2.53;;
9256;SDS011;4665;51.368;6.782;2024-02-15T10:22:23;2.80;;;2.30;;
9256;SDS011;4665;51.368;6.782;2024-02-15T10:25:09;3.53;;;2.43;;
9256;SDS011;4665;51.368;6.782;2024-02-15T10:27:35;5.70;;;2.37;;
9256;SDS011;4665;51.368;6.782;2024-02-15T10:32:49;2.63;;;2.17;;
9256;SDS011;4665;51.368;6.782;2024-02-15T10:38:18;4.73;;;2.50;;
9256;SDS011;4665;51.368;6.782;2024-02-15T10:40:44;4.43;;;2.20;;
9256;SDS011;4665;51.368;6.782;2024-02-15T10:46:29;3.47;;;2.30;;
9256;SDS011;4665;51.368;6.782;2024-02-15T10:48:58;3.70;;;2.40;;
9256;SDS011;4665;51.368;6.782;2024-02-15T10:51:36;3.77;;;2.03;;
9256;SDS011;4665;51.368;6.782;2024-02-15T10:54:12;4.57;;;2.23;;
9256;SDS011;4665;51.368;6.782;2024-02-15T10:57:03;5.03;;;1.93;;
9256;SDS011;4665;51.368;6.782;2024-02-15T10:59:29;6.30;;;2.20;;
9256;SDS011;4665;51.368;6.782;2024-02-15T11:01:59;2.30;;;1.93;;
9256;SDS011;4665;51.368;6.782;2024-02-15T11:10:12;4.60;;;2.20;;
9256;SDS011;4665;51.368;6.782;2024-02-15T11:12:43;2.60;;;2.00;;
9256;SDS011;4665;51.368;6.782;2024-02-15T11:15:09;4.00;;;2.40;;
9256;SDS011;4665;51.368;6.782;2024-02-15T11:28:46;2.73;;;2.10;;
9256;SDS011;4665;51.368;6.782;2024-02-15T11:41:17;3.73;;;2.10;;
9256;SDS011;4665;51.368;6.782;2024-02-15T11:49:05;4.23;;;2.00;;
9256;SDS011;4665;51.368;6.782;2024-02-15T11:51:31;2.33;;;1.80;;
9256;SDS011;4665;51.368;6.782;2024-02-15T11:59:10;1.50;;;1.40;;
9256;SDS011;4665;51.368;6.782;2024-02-15T12:01:44;2.77;;;1.83;;
9256;SDS011;4665;51.368;6.782;2024-02-15T12:07:44;3.93;;;1.83;;
9256;SDS011;4665;51.368;6.782;2024-02-15T12:10:27;2.60;;;1.60;;
9256;SDS011;4665;51.368;6.782;2024-02-15T12:13:19;3.67;;;1.70;;
9256;SDS011;4665;51.368;6.782;2024-02-15T12:16:02;2.90;;;1.63;;
9256;SDS011;4665;51.368;6.782;2024-02-15T12:21:24;2.43;;;1.60;;
9256;SDS011;4665;51.368;6.782;2024-02-15T12:23:50;3.60;;;1.70;;
9256;SDS011;4665;51.368;6.782;2024-02-15T12:26:20;1.97;;;1.80;;
9256;SDS011;4665;51.368;6.782;2024-02-15T12:28:54;4.70;;;1.60;;
9256;SDS011;4665;51.368;6.782;2024-02-15T12:31:20;3.87;;;1.80;;
9256;SDS011;4665;51.368;6.782;2024-02-15T12:33:45;1.90;;;1.67;;
9256;SDS011;4665;51.368;6.782;2024-02-15T12:39:14;1.90;;;1.60;;
9256;SDS011;4665;51.368;6.782;2024-02-15T12:42:02;4.20;;;1.77;;
9256;SDS011;4665;51.368;6.782;2024-02-15T12:44:28;1.93;;;1.63;;
9256;SDS011;4665;51.368;6.782;2024-02-15T12:46:57;2.10;;;1.67;;
9256;SDS011;4665;51.368;6.782;2024-02-15T12:52:37;1.93;;;1.70;;
9256;SDS011;4665;51.368;6.782;2024-02-15T12:58:02;2.57;;;1.63;;
9256;SDS011;4665;51.368;6.782;2024-02-15T13:03:44;2.10;;;1.40;;
9256;SDS011;4665;51.368;6.782;2024-02-15T13:06:10;2.33;;;1.67;;
9256;SDS011;4665;51.368;6.782;2024-02-15T13:08:35;3.83;;;1.57;;
9256;SDS011;4665;51.368;6.782;2024-02-15T13:11:19;3.57;;;1.47;;
9256;SDS011;4665;51.368;6.782;2024-02-15T13:16:47;4.10;;;1.60;;
9256;SDS011;4665;51.368;6.782;2024-02-15T13:22:08;2.60;;;1.83;;
9256;SDS011;4665;51.368;6.782;2024-02-15T13:30:22;2.83;;;1.53;;
9256;SDS011;4665;51.368;6.782;2024-02-15T13:33:05;3.20;;;1.50;;
9256;SDS011;4665;51.368;6.782;2024-02-15T13:35:31;2.73;;;1.60;;
9256;SDS011;4665;51.368;6.782;2024-02-15T13:47:02;2.50;;;1.20;;
9256;SDS011;4665;51.368;6.782;2024-02-15T13:49:30;2.60;;;1.47;;
9256;SDS011;4665;51.368;6.782;2024-02-15T13:51:57;1.67;;;1.57;;
9256;SDS011;4665;51.368;6.782;2024-02-15T13:57:25;1.67;;;1.57;;
9256;SDS011;4665;51.368;6.782;2024-02-15T14:03:01;3.13;;;1.57;;
9256;SDS011;4665;51.368;6.782;2024-02-15T14:05:28;5.93;;;1.30;;
9256;SDS011;4665;51.368;6.782;2024-02-15T14:10:28;1.27;;;1.17;;
9256;SDS011;4665;51.368;6.782;2024-02-15T14:12:54;2.57;;;1.47;;
9256;SDS011;4665;51.368;6.782;2024-02-15T14:15:46;2.40;;;1.30;;
9256;SDS011;4665;51.368;6.782;2024-02-15T14:18:12;3.77;;;1.50;;
9256;SDS011;4665;51.368;6.782;2024-02-15T14:21:00;1.93;;;1.50;;
9256;SDS011;4665;51.368;6.782;2024-02-15T14:23:26;1.50;;;1.40;;
9256;SDS011;4665;51.368;6.782;2024-02-15T14:25:54;1.50;;;1.40;;
9256;SDS011;4665;51.368;6.782;2024-02-15T14:28:25;1.93;;;1.30;;
9256;SDS011;4665;51.368;6.782;2024-02-15T14:30:56;1.80;;;1.30;;
9256;SDS011;4665;51.368;6.782;2024-02-15T14:33:40;1.63;;;1.30;;
9256;SDS011;4665;51.368;6.782;2024-02-15T14:36:07;1.43;;;1.20;;
9256;SDS011;4665;51.368;6.782;2024-02-15T14:38:33;2.67;;;1.40;;
9256;SDS011;4665;51.368;6.782;2024-02-15T14:46:48;1.53;;;1.30;;
9256;SDS011;4665;51.368;6.782;2024-02-15T14:49:27;2.90;;;1.53;;
9256;SDS011;4665;51.368;6.782;2024-02-15T14:51:52;1.70;;;1.40;;
9256;SDS011;4665;51.368;6.782;2024-02-15T14:54:30;1.43;;;1.33;;
9256;SDS011;4665;51.368;6.782;2024-02-15T14:56:56;2.13;;;1.27;;
9256;SDS011;4665;51.368;6.782;2024-02-15T15:02:23;1.93;;;1.40;;
9256;SDS011;4665;51.368;6.782;2024-02-15T15:04:48;3.23;;;1.30;;
9256;SDS011;4665;51.368;6.782;2024-02-15T15:07:47;2.87;;;1.70;;
9256;SDS011;4665;51.368;6.782;2024-02-15T15:10:31;1.60;;;1.50;;
9256;SDS011;4665;51.368;6.782;2024-02-15T15:13:17;2.23;;;1.20;;
9256;SDS011;4665;51.368;6.782;2024-02-15T15:15:44;2.30;;;1.53;;
9256;SDS011;4665;51.368;6.782;2024-02-15T15:18:10;2.93;;;1.30;;
9256;SDS011;4665;51.368;6.782;2024-02-15T15:23:47;1.63;;;1.50;;
9256;SDS011;4665;51.368;6.782;2024-02-15T15:26:18;3.37;;;1.60;;
9256;SDS011;4665;51.368;6.782;2024-02-15T15:31:39;2.50;;;1.40;;
9256;SDS011;4665;51.368;6.782;2024-02-15T15:34:07;1.77;;;1.67;;
9256;SDS011;4665;51.368;6.782;2024-02-15T15:36:32;1.10;;;1.10;;
9256;SDS011;4665;51.368;6.782;2024-02-15T15:41:58;1.27;;;1.10;;
9256;SDS011;4665;51.368;6.782;2024-02-15T15:47:26;3.37;;;1.63;;
9256;SDS011;4665;51.368;6.782;2024-02-15T15:52:33;1.23;;;1.10;;
9256;SDS011;4665;51.368;6.782;2024-02-15T15:54:58;3.20;;;1.53;;
9256;SDS011;4665;51.368;6.782;2024-02-15T15:57:30;1.73;;;1.27;;
9256;SDS011;4665;51.368;6.782;2024-02-15T15:59:58;1.83;;;1.40;;
9256;SDS011;4665;51.368;6.782;2024-02-15T16:02:26;1.23;;;1.10;;
9256;SDS011;4665;51.368;6.782;2024-02-15T16:04:53;1.37;;;1.20;;
9256;SDS011;4665;51.368;6.782;2024-02-15T16:07:20;2.00;;;1.40;;
9256;SDS011;4665;51.368;6.782;2024-02-15T16:09:47;1.60;;;1.27;;
9256;SDS011;4665;51.368;6.782;2024-02-15T16:12:13;3.70;;;1.73;;
9256;SDS011;4665;51.368;6.782;2024-02-15T16:14:49;2.43;;;1.47;;
9256;SDS011;4665;51.368;6.782;2024-02-15T16:17:14;2.13;;;1.13;;
9256;SDS011;4665;51.368;6.782;2024-02-15T16:19:40;2.10;;;1.17;;
9256;SDS011;4665;51.368;6.782;2024-02-15T16:22:06;1.47;;;1.23;;
9256;SDS011;4665;51.368;6.782;2024-02-15T16:24:43;2.20;;;1.37;;
9256;SDS011;4665;51.368;6.782;2024-02-15T16:27:09;1.53;;;1.00;;
9256;SDS011;4665;51.368;6.782;2024-02-15T16:29:36;1.40;;;1.30;;
9256;SDS011;4665;51.368;6.782;2024-02-15T16:32:01;1.20;;;1.17;;
9256;SDS011;4665;51.368;6.782;2024-02-15T16:34:40;1.83;;;1.50;;
9256;SDS011;4665;51.368;6.782;2024-02-15T16:37:05;2.60;;;1.50;;
9256;SDS011;4665;51.368;6.782;2024-02-15T16:42:36;1.67;;;1.30;;
9256;SDS011;4665;51.368;6.782;2024-02-15T16:45:12;1.20;;;1.20;;
9256;SDS011;4665;51.368;6.782;2024-02-15T16:47:46;1.00;;;1.00;;
9256;SDS011;4665;51.368;6.782;2024-02-15T16:50:21;2.17;;;1.37;;
9256;SDS011;4665;51.368;6.782;2024-02-15T16:52:54;1.20;;;0.90;;
9256;SDS011;4665;51.368;6.782;2024-02-15T16:55:19;1.13;;;1.00;;
9256;SDS011;4665;51.368;6.782;2024-02-15T17:00:46;1.50;;;1.40;;
9256;SDS011;4665;51.368;6.782;2024-02-15T17:03:15;3.10;;;1.50;;
9256;SDS011;4665;51.368;6.782;2024-02-15T17:05:41;2.20;;;1.47;;
9256;SDS011;4665;51.368;6.782;2024-02-15T17:08:13;1.90;;;1.60;;
9256;SDS011;4665;51.368;6.782;2024-02-15T17:10:38;1.20;;;1.20;;
9256;SDS011;4665;51.368;6.782;2024-02-15T17:13:18;3.23;;;1.37;;
9256;SDS011;4665;51.368;6.782;2024-02-15T17:15:45;1.20;;;1.10;;
9256;SDS011;4665;51.368;6.782;2024-02-15T17:21:32;4.03;;;1.47;;
9256;SDS011;4665;51.368;6.782;2024-02-15T17:26:58;1.33;;;1.03;;
9256;SDS011;4665;51.368;6.782;2024-02-15T17:29:24;3.17;;;1.10;;
9256;SDS011;4665;51.368;6.782;2024-02-15T17:31:50;2.13;;;1.20;;
9256;SDS011;4665;51.368;6.782;2024-02-15T17:37:18;1.33;;;1.00;;
9256;SDS011;4665;51.368;6.782;2024-02-15T17:39:55;3.70;;;1.30;;
9256;SDS011;4665;51.368;6.782;2024-02-15T17:42:20;2.27;;;1.10;;
9256;SDS011;4665;51.368;6.782;2024-02-15T17:44:45;1.30;;;1.00;;
9256;SDS011;4665;51.368;6.782;2024-02-15T17:50:14;1.40;;;1.00;;
9256;SDS011;4665;51.368;6.782;2024-02-15T17:55:53;1.83;;;0.97;;
9256;SDS011;4665;51.368;6.782;2024-02-15T17:58:21;2.33;;;0.80;;
9256;SDS011;4665;51.368;6.782;2024-02-15T18:01:00;1.57;;;0.90;;
9256;SDS011;4665;51.368;6.782;2024-02-15T18:03:26;2.57;;;0.90;;
9256;SDS011;4665;51.368;6.782;2024-02-15T18:05:51;1.77;;;1.10;;
9256;SDS011;4665;51.368;6.782;2024-02-15T18:08:17;2.27;;;1.20;;
9256;SDS011;4665;51.368;6.782;2024-02-15T18:10:43;1.70;;;1.07;;
9256;SDS011;4665;51.368;6.782;2024-02-15T18:19:14;1.73;;;1.13;;
9256;SDS011;4665;51.368;6.782;2024-02-15T18:24:54;2.03;;;1.27;;
9256;SDS011;4665;51.368;6.782;2024-02-15T18:27:19;1.10;;;1.00;;
9256;SDS011;4665;51.368;6.782;2024-02-15T18:29:55;1.10;;;1.00;;
9256;SDS011;4665;51.368;6.782;2024-02-15T18:32:20;1.10;;;1.00;;
9256;SDS011;4665;51.368;6.782;2024-02-15T18:37:35;1.23;;;1.00;;
9256;SDS011;4665;51.368;6.782;2024-02-15T18:40:01;1.87;;;1.10;;
9256;SDS011;4665;51.368;6.782;2024-02-15T18:42:31;1.47;;;0.90;;
9256;SDS011;4665;51.368;6.782;2024-02-15T18:44:56;1.33;;;1.27;;
9256;SDS011;4665;51.368;6.782;2024-02-15T18:50:21;1.60;;;1.30;;
9256;SDS011;4665;51.368;6.782;2024-02-15T18:55:42;1.73;;;1.10;;
9256;SDS011;4665;51.368;6.782;2024-02-15T18:58:07;0.90;;;0.90;;
9256;SDS011;4665;51.368;6.782;2024-02-15T19:00:47;2.43;;;1.50;;
9256;SDS011;4665;51.368;6.782;2024-02-15T19:03:12;1.97;;;1.30;;
9256;SDS011;4665;51.368;6.782;2024-02-15T19:05:38;2.97;;;1.40;;
9256;SDS011;4665;51.368;6.782;2024-02-15T19:08:16;1.83;;;1.27;;
9256;SDS011;4665;51.368;6.782;2024-02-15T19:10:48;1.30;;;1.20;;
9256;SDS011;4665;51.368;6.782;2024-02-15T19:13:13;1.80;;;1.40;;
9256;SDS011;4665;51.368;6.782;2024-02-15T19:15:38;3.30;;;1.30;;
9256;SDS011;4665;51.368;6.782;2024-02-15T19:24:08;3.50;;;1.50;;
9256;SDS011;4665;51.368;6.782;2024-02-15T19:26:34;1.30;;;1.03;;
9256;SDS011;4665;51.368;6.782;2024-02-15T19:29:09;1.37;;;1.27;;
9256;SDS011;4665;51.368;6.782;2024-02-15T19:31:34;3.03;;;1.43;;
9256;SDS011;4665;51.368;6.782;2024-02-15T19:34:01;1.73;;;1.40;;
9256;SDS011;4665;51.368;6.782;2024-02-15T19:45:32;1.20;;;1.10;;
9256;SDS011;4665;51.368;6.782;2024-02-15T19:51:04;1.33;;;1.27;;
9256;SDS011;4665;51.368;6.782;2024-02-15T19:53:29;2.50;;;1.43;;
9256;SDS011;4665;51.368;6.782;2024-02-15T19:58:39;1.90;;;1.50;;
9256;SDS011;4665;51.368;6.782;2024-02-15T20:04:26;1.63;;;1.33;;
9256;SDS011;4665;51.368;6.782;2024-02-15T20:07:07;1.30;;;1.23;;
9256;SDS011;4665;51.368;6.782;2024-02-15T20:09:33;3.20;;;1.50;;
9256;SDS011;4665;51.368;6.782;2024-02-15T20:11:58;1.67;;;1.57;;
9256;SDS011;4665;51.368;6.782;2024-02-15T20:14:24;3.13;;;1.70;;
9256;SDS011;4665;51.368;6.782;2024-02-15T20:16:53;1.30;;;1.20;;
9256;SDS011;4665;51.368;6.782;2024-02-15T20:19:25;2.50;;;1.30;;
9256;SDS011;4665;51.368;6.782;2024-02-15T20:21:53;2.30;;;1.40;;
9256;SDS011;4665;51.368;6.782;2024-02-15T20:24:19;2.50;;;1.63;;
9256;SDS011;4665;51.368;6.782;2024-02-15T20:29:35;1.33;;;1.20;;
9256;SDS011;4665;51.368;6.782;2024-02-15T20:34:33;1.23;;;1.13;;
9256;SDS011;4665;51.368;6.782;2024-02-15T20:37:15;2.27;;;1.37;;
9256;SDS011;4665;51.368;6.782;2024-02-15T20:39:40;1.47;;;1.37;;
9256;SDS011;4665;51.368;6.782;2024-02-15T20:42:05;5.17;;;1.67;;
9256;SDS011;4665;51.368;6.782;2024-02-15T20:44:31;1.60;;;1.50;;
9256;SDS011;4665;51.368;6.782;2024-02-15T20:46:57;3.83;;;1.27;;
9256;SDS011;4665;51.368;6.782;2024-02-15T20:49:22;2.60;;;1.23;;
9256;SDS011;4665;51.368;6.782;2024-02-15T20:51:49;1.40;;;1.30;;
9256;SDS011;4665;51.368;6.782;2024-02-15T20:54:16;1.40;;;1.30;;
9256;SDS011;4665;51.368;6.782;2024-02-15T20:56:41;2.80;;;1.50;;
9256;SDS011;4665;51.368;6.782;2024-02-15T20:59:11;3.70;;;1.70;;
9256;SDS011;4665;51.368;6.782;2024-02-15T21:01:38;1.93;;;1.23;;
9256;SDS011;4665;51.368;6.782;2024-02-15T21:04:04;1.53;;;1.13;;
9256;SDS011;4665;51.368;6.782;2024-02-15T21:09:17;1.43;;;1.30;;
9256;SDS011;4665;51.368;6.782;2024-02-15T21:11:51;3.90;;;1.33;;
9256;SDS011;4665;51.368;6.782;2024-02-15T21:14:17;1.90;;;1.27;;
9256;SDS011;4665;51.368;6.782;2024-02-15T21:19:19;1.83;;;1.40;;
9256;SDS011;4665;51.368;6.782;2024-02-15T21:21:44;1.40;;;1.30;;
9256;SDS011;4665;51.368;6.782;2024-02-15T21:24:23;2.50;;;1.30;;
9256;SDS011;4665;51.368;6.782;2024-02-15T21:26:48;2.23;;;1.70;;
9256;SDS011;4665;51.368;6.782;2024-02-15T21:29:20;1.77;;;1.10;;
9256;SDS011;4665;51.368;6.782;2024-02-15T21:31:46;1.23;;;1.23;;
9256;SDS011;4665;51.368;6.782;2024-02-15T21:34:14;1.30;;;1.20;;